Green Oak Township, Michigan
Current Conditions -  °F | °C
As of 7:34 PM on Wednesday 22 Oct 2014 (Local Time) from KOZW Reporting Station
Scattered Clouds Scattered Clouds  
Wind Chill: 44°   Ceiling: Unl
Heat Index: 44°   Visibility: 10mi
Dew Point: 38°   Wind: 0mph
Humidity: 79%   Direction: NA
Pressure: 30.29"   Gusts: NA
Location:  42.5333°N, 83.7735°W
Report Text: KOZW 222334Z AUTO 00000KT 10SM SCT022 07/03 A3029 RMK AO2 T00650031
Loading
Personal Weather Stations






























Interactive Weather Map
Tropical Storm Tracking
New forecast layout! Learn more

10-Day Weather Forecast

Advertisements
Track Severe Weather on mobile